createdAt,value
2023-01-31T00:01:29.410Z,93611.06
2023-01-31T00:04:01.484Z,93608.16
2023-01-31T00:06:29.667Z,93619.59
2023-01-31T00:08:57.828Z,93620.00
2023-01-31T00:11:26.221Z,93602.50
2023-01-31T00:13:53.612Z,93597.41
2023-01-31T00:16:21.721Z,93610.84
2023-01-31T00:18:49.061Z,93602.66
2023-01-31T00:21:21.963Z,93611.19
2023-01-31T00:23:50.167Z,93622.66
2023-01-31T00:26:19.484Z,93614.91
2023-01-31T00:28:47.520Z,93615.09
2023-01-31T00:31:15.530Z,93623.16
2023-01-31T00:33:43.531Z,93621.13
2023-01-31T00:36:13.558Z,93620.34
2023-01-31T00:38:42.598Z,93619.59
2023-01-31T00:41:09.485Z,93616.63
2023-01-31T00:43:36.647Z,93614.94
2023-01-31T00:46:04.603Z,93616.94
2023-01-31T00:48:31.553Z,93620.22
2023-01-31T00:50:58.304Z,93620.03
2023-01-31T00:53:25.817Z,93611.47
2023-01-31T00:55:54.131Z,93618.75
2023-01-31T00:58:20.939Z,93609.63
2023-01-31T01:00:48.201Z,93609.41
2023-01-31T01:03:15.354Z,93604.88
2023-01-31T01:05:42.045Z,93622.84
2023-01-31T01:08:08.706Z,93635.25
2023-01-31T01:10:35.565Z,93648.47
2023-01-31T01:13:02.855Z,93643.50
2023-01-31T01:15:29.631Z,93645.69
2023-01-31T01:17:56.537Z,93639.63
2023-01-31T01:20:23.497Z,93645.72
2023-01-31T01:22:50.235Z,93631.22
2023-01-31T01:25:17.009Z,93633.38
2023-01-31T01:27:43.625Z,93633.41
2023-01-31T01:30:11.153Z,93625.63
2023-01-31T01:32:38.251Z,93612.59
2023-01-31T01:35:05.195Z,93614.94
2023-01-31T01:37:32.453Z,93606.22
2023-01-31T01:39:59.092Z,93621.44
2023-01-31T01:42:26.610Z,93621.13
2023-01-31T01:45:00.962Z,93622.06
2023-01-31T01:47:50.221Z,93613.38
2023-01-31T01:50:30.193Z,93622.69
2023-01-31T01:53:05.251Z,93620.50
2023-01-31T01:55:31.999Z,93628.16
2023-01-31T01:58:12.563Z,93625.91
2023-01-31T02:00:39.721Z,93617.63
2023-01-31T02:03:08.363Z,93618.13
2023-01-31T02:05:43.925Z,93627.53
2023-01-31T02:08:11.927Z,93625.97
2023-01-31T02:11:11.170Z,93633.97
2023-01-31T02:13:41.462Z,93645.16
2023-01-31T02:16:08.464Z,93637.53
2023-01-31T02:18:35.628Z,93645.00
2023-01-31T02:21:20.617Z,93633.75
2023-01-31T02:24:15.644Z,93624.97
2023-01-31T02:27:00.728Z,93628.59
2023-01-31T02:29:48.618Z,93626.16
2023-01-31T02:32:52.584Z,93628.19
2023-01-31T02:35:43.951Z,93635.59
2023-01-31T02:38:25.443Z,93629.72
2023-01-31T02:41:17.771Z,93639.03
2023-01-31T02:44:24.128Z,93629.25
2023-01-31T02:46:59.633Z,93629.94
2023-01-31T02:49:35.178Z,93625.34
2023-01-31T02:52:17.213Z,93634.53
2023-01-31T02:55:48.053Z,93648.13
2023-01-31T02:58:18.101Z,93649.31
2023-01-31T03:00:46.969Z,93660.56
2023-01-31T03:03:28.913Z,93680.19
2023-01-31T03:06:27.051Z,93675.78
2023-01-31T03:09:08.682Z,93687.50
2023-01-31T03:11:47.188Z,93694.28
2023-01-31T03:14:23.270Z,93698.66
2023-01-31T03:17:29.324Z,93704.88
2023-01-31T03:20:03.441Z,93705.69
2023-01-31T03:22:35.219Z,93699.53
2023-01-31T03:25:05.561Z,93701.00
2023-01-31T03:27:33.641Z,93711.06
2023-01-31T03:30:10.110Z,93698.97
2023-01-31T03:32:45.169Z,93710.38
2023-01-31T03:35:12.635Z,93709.59
2023-01-31T03:37:56.917Z,93729.19
2023-01-31T03:40:34.943Z,93732.31
2023-01-31T03:43:13.645Z,93738.88
2023-01-31T03:45:48.851Z,93740.00
2023-01-31T03:48:19.009Z,93734.69
2023-01-31T03:50:53.196Z,93735.31
2023-01-31T03:53:46.541Z,93738.94
2023-01-31T03:56:18.389Z,93734.63
2023-01-31T03:58:54.327Z,93747.69
2023-01-31T04:01:25.581Z,93750.69
2023-01-31T04:03:57.779Z,93756.25
2023-01-31T04:06:24.552Z,93743.50
2023-01-31T04:08:51.211Z,93751.44
2023-01-31T04:11:21.568Z,93746.19
2023-01-31T04:13:48.248Z,93750.44
2023-01-31T04:16:15.110Z,93757.03
2023-01-31T04:18:41.791Z,93763.41
2023-01-31T04:21:08.463Z,93757.19
2023-01-31T04:23:35.230Z,93764.75
2023-01-31T04:26:01.949Z,93769.34
2023-01-31T04:28:28.575Z,93777.94
2023-01-31T04:30:56.489Z,93780.97
2023-01-31T04:33:23.484Z,93784.66
2023-01-31T04:35:53.634Z,93795.56
2023-01-31T04:38:20.242Z,93801.38
2023-01-31T04:40:46.883Z,93781.72
2023-01-31T04:43:13.570Z,93794.41
2023-01-31T04:45:40.150Z,93787.00
2023-01-31T04:48:07.763Z,93806.03
2023-01-31T04:50:34.540Z,93796.53
2023-01-31T04:53:02.303Z,93788.97
2023-01-31T04:55:29.015Z,93788.78
2023-01-31T04:57:55.681Z,93794.31
2023-01-31T05:00:22.447Z,93789.59
2023-01-31T05:02:50.443Z,93769.13
2023-01-31T05:05:17.192Z,93777.16
2023-01-31T05:07:44.901Z,93773.53
2023-01-31T05:10:11.952Z,93782.97
2023-01-31T05:12:38.638Z,93783.09
2023-01-31T05:15:07.914Z,93770.06
2023-01-31T05:17:34.724Z,93779.06
2023-01-31T05:20:02.593Z,93792.56
2023-01-31T05:22:29.259Z,93795.56
2023-01-31T05:24:57.648Z,93799.16
2023-01-31T05:27:25.669Z,93804.84
2023-01-31T05:29:52.919Z,93795.00
2023-01-31T05:32:19.872Z,93790.13
2023-01-31T05:34:46.495Z,93799.59
2023-01-31T05:37:13.178Z,93806.97
2023-01-31T05:39:40.017Z,93808.47
2023-01-31T05:42:06.663Z,93810.91
2023-01-31T05:44:33.596Z,93806.78
2023-01-31T05:47:01.399Z,93810.22
2023-01-31T05:49:32.720Z,93815.97
2023-01-31T05:52:00.879Z,93813.84
2023-01-31T05:54:27.742Z,93825.47
2023-01-31T05:56:54.373Z,93818.47
2023-01-31T05:59:20.991Z,93830.09
2023-01-31T06:01:47.828Z,93829.03
2023-01-31T06:04:14.476Z,93824.59
2023-01-31T06:06:41.145Z,93818.75
2023-01-31T06:09:07.758Z,93827.84
2023-01-31T06:11:34.438Z,93815.41
2023-01-31T06:14:01.036Z,93819.66
2023-01-31T06:16:27.703Z,93815.38
2023-01-31T06:18:55.700Z,93819.28
2023-01-31T06:21:22.491Z,93818.28
2023-01-31T06:23:49.140Z,93806.34
2023-01-31T06:26:15.769Z,93814.44
2023-01-31T06:28:43.964Z,93820.31
2023-01-31T06:31:12.653Z,93820.19
2023-01-31T06:33:47.027Z,93826.00
2023-01-31T06:36:16.006Z,93828.28
2023-01-31T06:38:43.999Z,93822.00
2023-01-31T06:41:10.589Z,93813.09
2023-01-31T06:43:37.223Z,93813.72
2023-01-31T06:46:03.883Z,93817.84
2023-01-31T06:48:30.503Z,93823.69
2023-01-31T06:50:57.576Z,93830.06
2023-01-31T06:53:24.200Z,93821.63
2023-01-31T06:55:50.837Z,93826.59
2023-01-31T06:58:20.681Z,93828.03
2023-01-31T07:00:47.951Z,93824.81
2023-01-31T07:03:14.848Z,93830.09
2023-01-31T07:05:41.500Z,93821.34
2023-01-31T07:08:08.135Z,93826.97
2023-01-31T07:10:34.767Z,93827.00
2023-01-31T07:13:02.077Z,93832.09
2023-01-31T07:15:29.077Z,93833.78
2023-01-31T07:17:59.564Z,93844.81
2023-01-31T07:20:26.847Z,93847.38
2023-01-31T07:22:59.970Z,93836.84
2023-01-31T07:25:27.698Z,93839.47
2023-01-31T07:27:54.289Z,93854.53
2023-01-31T07:30:21.036Z,93851.97
2023-01-31T07:32:48.994Z,93844.00
2023-01-31T07:35:15.580Z,93844.66
2023-01-31T07:37:43.526Z,93849.47
2023-01-31T07:40:15.281Z,93850.31
2023-01-31T07:42:42.270Z,93851.78
2023-01-31T07:45:24.235Z,93848.16
2023-01-31T07:47:51.671Z,93862.41
2023-01-31T07:50:18.918Z,93862.38
2023-01-31T07:52:45.568Z,93867.88
2023-01-31T07:55:12.181Z,93853.91
2023-01-31T07:57:38.764Z,93861.69
2023-01-31T08:00:25.967Z,93851.75
2023-01-31T08:03:27.924Z,93852.06
2023-01-31T08:05:54.599Z,93862.09
2023-01-31T08:08:21.186Z,93854.47
2023-01-31T08:10:48.040Z,93855.50
2023-01-31T08:13:14.610Z,93846.81
2023-01-31T08:15:41.234Z,93836.97
2023-01-31T08:18:07.871Z,93855.19
2023-01-31T08:20:37.518Z,93856.22
2023-01-31T08:23:04.231Z,93851.84
2023-01-31T08:25:32.043Z,93863.41
2023-01-31T08:27:59.663Z,93854.75
2023-01-31T08:30:27.739Z,93846.63
2023-01-31T08:32:54.593Z,93842.38
2023-01-31T08:35:21.850Z,93847.81
2023-01-31T08:37:48.850Z,93848.34
2023-01-31T08:40:15.544Z,93851.56
2023-01-31T08:42:42.647Z,93847.91
2023-01-31T08:45:10.217Z,93849.25
2023-01-31T08:47:37.389Z,93841.75
2023-01-31T08:50:04.192Z,93850.72
2023-01-31T08:52:35.447Z,93838.84
2023-01-31T08:55:02.517Z,93831.56
2023-01-31T08:57:30.247Z,93840.13
2023-01-31T08:59:57.290Z,93844.88
2023-01-31T09:02:24.077Z,93838.81
2023-01-31T09:04:50.759Z,93840.19
2023-01-31T09:07:21.682Z,93840.84
2023-01-31T09:09:49.575Z,93835.97
2023-01-31T09:12:16.321Z,93844.31
2023-01-31T09:14:42.925Z,93849.72
2023-01-31T09:17:10.911Z,93850.75
2023-01-31T09:19:38.727Z,93844.41
2023-01-31T09:22:05.531Z,93850.69
2023-01-31T09:24:32.268Z,93835.59
2023-01-31T09:26:59.050Z,93851.78
2023-01-31T09:29:25.728Z,93846.78
2023-01-31T09:31:53.402Z,93842.84
2023-01-31T09:34:21.902Z,93847.50
2023-01-31T09:36:48.740Z,93834.88
2023-01-31T09:39:15.600Z,93837.44
2023-01-31T09:42:11.515Z,93840.63
2023-01-31T09:44:42.475Z,93832.81
2023-01-31T09:47:14.591Z,93821.84
2023-01-31T09:49:53.586Z,93823.84
2023-01-31T09:52:22.373Z,93823.34
2023-01-31T09:54:49.616Z,93806.91
2023-01-31T09:57:25.956Z,93804.47
2023-01-31T10:00:17.077Z,93810.22
2023-01-31T10:03:18.438Z,93815.47
2023-01-31T10:05:44.965Z,93808.34
2023-01-31T10:08:20.829Z,93803.38
2023-01-31T10:10:52.742Z,93804.91
2023-01-31T10:13:30.270Z,93806.94
2023-01-31T10:16:03.056Z,93797.88
2023-01-31T10:18:34.232Z,93789.06
2023-01-31T10:21:09.442Z,93773.63
2023-01-31T10:23:54.413Z,93773.06
2023-01-31T10:26:27.183Z,93766.06
2023-01-31T10:29:16.083Z,93773.50
2023-01-31T10:32:12.556Z,93774.09
2023-01-31T10:34:45.606Z,93765.56
2023-01-31T10:37:19.285Z,93779.38
2023-01-31T10:39:53.512Z,93777.19
2023-01-31T10:42:29.152Z,93759.09
2023-01-31T10:44:59.058Z,93754.38
2023-01-31T10:47:33.159Z,93766.63
2023-01-31T10:50:00.068Z,93775.38
2023-01-31T10:52:28.637Z,93767.63
2023-01-31T10:55:11.943Z,93774.41
2023-01-31T10:57:38.772Z,93780.38
2023-01-31T11:00:06.289Z,93777.72
2023-01-31T11:02:33.311Z,93781.06
2023-01-31T11:05:00.292Z,93788.72
2023-01-31T11:07:31.700Z,93787.53
2023-01-31T11:09:58.640Z,93789.38
2023-01-31T11:12:55.169Z,93785.91
2023-01-31T11:15:26.794Z,93791.03
2023-01-31T11:17:54.120Z,93793.28
2023-01-31T11:20:31.410Z,93792.47
2023-01-31T11:23:00.816Z,93798.47
2023-01-31T11:25:30.968Z,93797.66
2023-01-31T11:28:03.974Z,93797.22
2023-01-31T11:30:35.198Z,93796.84
2023-01-31T11:33:03.258Z,93799.69
2023-01-31T11:35:32.410Z,93799.47
2023-01-31T11:38:00.391Z,93802.28
2023-01-31T11:40:31.097Z,93803.72
2023-01-31T11:43:03.495Z,93807.22
2023-01-31T11:45:37.005Z,93803.47
2023-01-31T11:48:18.271Z,93801.28
2023-01-31T11:50:51.009Z,93802.44
2023-01-31T11:53:24.859Z,93806.72
2023-01-31T11:55:54.952Z,93801.00
2023-01-31T11:58:54.207Z,93809.66
2023-01-31T12:01:24.044Z,93799.44
2023-01-31T12:04:03.655Z,93796.66
2023-01-31T12:06:41.531Z,93803.47
2023-01-31T12:09:23.482Z,93799.56
2023-01-31T12:11:54.741Z,93794.28
2023-01-31T12:14:28.043Z,93800.88
2023-01-31T12:16:56.546Z,93804.22
2023-01-31T12:19:59.941Z,93808.13
2023-01-31T12:22:53.276Z,93802.84
2023-01-31T12:25:38.917Z,93800.81
2023-01-31T12:28:37.669Z,93803.75
2023-01-31T12:31:42.476Z,93801.28
2023-01-31T12:34:25.486Z,93798.31
2023-01-31T12:37:07.110Z,93796.13
2023-01-31T12:39:53.035Z,93791.84
2023-01-31T12:42:29.000Z,93798.38
2023-01-31T12:45:27.040Z,93805.16
2023-01-31T12:48:20.341Z,93803.81
2023-01-31T12:51:05.073Z,93795.00
2023-01-31T12:53:40.804Z,93796.88
2023-01-31T12:56:26.249Z,93808.81
2023-01-31T12:59:15.474Z,93796.38
2023-01-31T13:01:53.026Z,93797.19
2023-01-31T13:04:22.371Z,93795.38
2023-01-31T13:06:57.728Z,93801.81
2023-01-31T13:09:32.769Z,93800.91
2023-01-31T13:12:14.764Z,93802.50
2023-01-31T13:14:48.258Z,93800.22
2023-01-31T13:17:23.032Z,93798.03
2023-01-31T13:19:52.271Z,93805.69
2023-01-31T13:22:30.199Z,93797.16
2023-01-31T13:25:30.008Z,93807.34
2023-01-31T13:28:05.598Z,93816.72
2023-01-31T13:30:40.728Z,93809.59
2023-01-31T13:33:30.424Z,93811.66
2023-01-31T13:36:19.944Z,93816.59
2023-01-31T13:38:47.259Z,93813.84
2023-01-31T13:41:32.978Z,93814.56
2023-01-31T13:44:01.521Z,93818.38
2023-01-31T13:46:52.818Z,93815.06
2023-01-31T13:49:36.169Z,93808.28
2023-01-31T13:52:09.516Z,93806.97
2023-01-31T13:54:40.969Z,93810.47
2023-01-31T13:57:18.343Z,93810.16
2023-01-31T13:59:53.712Z,93805.19
2023-01-31T14:02:20.747Z,93814.88
2023-01-31T14:04:48.024Z,93813.31
2023-01-31T14:07:20.333Z,93812.59
2023-01-31T14:09:49.881Z,93824.56
2023-01-31T14:12:17.160Z,93816.22
2023-01-31T14:14:52.494Z,93830.56
2023-01-31T14:17:21.858Z,93821.41
2023-01-31T14:19:49.395Z,93831.72
2023-01-31T14:22:22.002Z,93821.47
2023-01-31T14:24:56.023Z,93820.09
2023-01-31T14:27:22.567Z,93835.78
2023-01-31T14:30:10.428Z,93832.41
2023-01-31T14:32:44.771Z,93833.84
2023-01-31T14:35:14.416Z,93842.31
2023-01-31T14:38:02.376Z,93841.31
2023-01-31T14:40:34.971Z,93842.38
2023-01-31T14:43:19.689Z,93842.53
2023-01-31T14:46:01.170Z,93852.66
2023-01-31T14:48:38.858Z,93852.47
2023-01-31T14:51:08.117Z,93851.44
2023-01-31T14:53:43.689Z,93852.47
2023-01-31T14:56:16.118Z,93856.78
2023-01-31T14:58:47.398Z,93863.50
2023-01-31T15:01:18.912Z,93866.38
2023-01-31T15:03:55.482Z,93865.34
2023-01-31T15:06:37.748Z,93878.25
2023-01-31T15:09:16.285Z,93878.22
2023-01-31T15:11:45.084Z,93887.53
2023-01-31T15:14:41.206Z,93894.66
2023-01-31T15:17:31.596Z,93886.38
2023-01-31T15:20:05.956Z,93891.34
2023-01-31T15:22:38.414Z,93893.56
2023-01-31T15:25:18.958Z,93895.38
2023-01-31T15:27:47.602Z,93896.06
2023-01-31T15:30:20.016Z,93901.97
2023-01-31T15:33:02.379Z,93909.34
2023-01-31T15:35:31.763Z,93907.28
2023-01-31T15:38:12.311Z,93905.56
2023-01-31T15:40:38.947Z,93915.81
2023-01-31T15:43:22.581Z,93917.84
2023-01-31T15:45:52.515Z,93917.97
2023-01-31T15:48:21.892Z,93918.13
2023-01-31T15:50:57.050Z,93922.56
2023-01-31T15:53:26.063Z,93922.22
2023-01-31T15:55:56.433Z,93924.00
2023-01-31T15:58:26.819Z,93931.56
2023-01-31T16:00:56.544Z,93926.31
2023-01-31T16:03:48.729Z,93933.66
2023-01-31T16:06:30.667Z,93933.97
2023-01-31T16:09:01.478Z,93933.38
2023-01-31T16:11:34.241Z,93934.78
2023-01-31T16:14:07.739Z,93928.41
2023-01-31T16:16:36.021Z,93939.88
2023-01-31T16:19:04.179Z,93947.34
2023-01-31T16:21:41.368Z,93951.34
2023-01-31T16:24:22.674Z,93948.81
2023-01-31T16:26:59.175Z,93950.56
2023-01-31T16:29:40.704Z,93955.88
2023-01-31T16:32:19.529Z,93961.13
2023-01-31T16:34:53.988Z,93956.84
2023-01-31T16:37:31.651Z,93969.09
2023-01-31T16:40:10.720Z,93970.28
2023-01-31T16:42:39.267Z,93967.41
2023-01-31T16:45:33.153Z,93980.47
2023-01-31T16:48:22.960Z,93981.56
2023-01-31T16:50:52.881Z,93984.25
2023-01-31T16:53:26.489Z,93980.59
2023-01-31T16:56:14.911Z,93988.88
2023-01-31T16:58:53.439Z,93990.94
2023-01-31T17:01:32.382Z,93991.69
2023-01-31T17:04:14.103Z,93990.78
2023-01-31T17:06:42.664Z,94003.50
2023-01-31T17:09:19.423Z,94004.47
2023-01-31T17:11:47.074Z,94002.13
2023-01-31T17:14:13.851Z,94005.44
2023-01-31T17:16:40.551Z,94008.91
2023-01-31T17:19:07.115Z,94000.53
2023-01-31T17:21:41.038Z,94008.97
2023-01-31T17:24:13.671Z,94010.16
2023-01-31T17:26:40.654Z,94009.94
2023-01-31T17:29:07.393Z,94012.47
2023-01-31T17:31:34.764Z,94009.66
2023-01-31T17:34:02.448Z,94011.84
2023-01-31T17:36:29.044Z,94013.47
2023-01-31T17:38:55.778Z,94017.19
2023-01-31T17:41:24.790Z,94010.41
2023-01-31T17:43:51.605Z,94017.59
2023-01-31T17:46:19.258Z,94013.06
2023-01-31T17:48:45.955Z,94024.13
2023-01-31T17:51:13.003Z,94018.72
2023-01-31T17:53:49.492Z,94022.38
2023-01-31T17:56:18.663Z,94030.97
2023-01-31T17:58:46.027Z,94034.34
2023-01-31T18:01:14.430Z,94028.72
2023-01-31T18:03:41.692Z,94034.78
2023-01-31T18:06:09.925Z,94030.91
2023-01-31T18:08:36.704Z,94034.78
2023-01-31T18:11:15.203Z,94040.88
2023-01-31T18:13:54.000Z,94045.59
2023-01-31T18:16:21.715Z,94058.44
2023-01-31T18:18:48.608Z,94055.66
2023-01-31T18:21:17.994Z,94057.78
2023-01-31T18:23:52.865Z,94071.50
2023-01-31T18:26:20.672Z,94071.94
2023-01-31T18:28:47.646Z,94071.34
2023-01-31T18:31:20.399Z,94068.94
2023-01-31T18:33:47.786Z,94081.19
2023-01-31T18:36:17.766Z,94080.09
2023-01-31T18:38:45.776Z,94085.00
2023-01-31T18:41:14.697Z,94080.50
2023-01-31T18:43:42.633Z,94082.69
2023-01-31T18:46:10.360Z,94082.13
2023-01-31T18:48:39.167Z,94075.84
2023-01-31T18:51:08.641Z,94074.25
2023-01-31T18:53:36.951Z,94073.47
2023-01-31T18:56:05.993Z,94081.66
2023-01-31T18:58:34.788Z,94072.47
2023-01-31T19:01:33.886Z,94069.38
2023-01-31T19:04:03.705Z,94069.50
2023-01-31T19:06:36.283Z,94070.75
2023-01-31T19:09:05.638Z,94066.75
2023-01-31T19:11:32.661Z,94076.34
2023-01-31T19:14:03.201Z,94074.69
2023-01-31T19:16:30.200Z,94076.16
2023-01-31T19:18:57.162Z,94084.56
2023-01-31T19:21:26.362Z,94081.34
2023-01-31T19:23:59.351Z,94086.47
2023-01-31T19:26:27.119Z,94078.66
2023-01-31T19:28:55.445Z,94086.16
2023-01-31T19:31:24.451Z,94094.78
2023-01-31T19:33:53.475Z,94095.78
2023-01-31T19:36:22.950Z,94092.94
2023-01-31T19:38:50.073Z,94097.59
2023-01-31T19:41:19.324Z,94101.22
2023-01-31T19:43:48.045Z,94094.19
2023-01-31T19:46:14.890Z,94103.03
2023-01-31T19:48:41.629Z,94101.19
2023-01-31T19:51:13.725Z,94090.69
2023-01-31T19:53:40.952Z,94096.47
2023-01-31T19:56:08.545Z,94099.53
2023-01-31T19:58:36.535Z,94109.38
2023-01-31T20:01:15.958Z,94110.81
2023-01-31T20:03:43.116Z,94120.94
2023-01-31T20:06:12.597Z,94110.50
2023-01-31T20:08:39.759Z,94118.47
2023-01-31T20:11:07.940Z,94118.56
2023-01-31T20:13:35.919Z,94114.28
2023-01-31T20:16:06.787Z,94122.41
2023-01-31T20:18:38.079Z,94125.81
2023-01-31T20:21:05.850Z,94127.16
2023-01-31T20:23:32.609Z,94134.22
2023-01-31T20:25:59.633Z,94133.91
2023-01-31T20:28:27.426Z,94134.13
2023-01-31T20:30:54.519Z,94153.94
2023-01-31T20:33:21.173Z,94148.38
2023-01-31T20:35:48.286Z,94138.69
2023-01-31T20:38:18.282Z,94143.09
2023-01-31T20:40:53.275Z,94150.09
2023-01-31T20:43:22.101Z,94145.34
2023-01-31T20:45:49.004Z,94147.88
2023-01-31T20:48:16.268Z,94141.84
2023-01-31T20:50:43.154Z,94136.97
2023-01-31T20:53:19.921Z,94129.56
2023-01-31T20:55:54.029Z,94145.25
2023-01-31T20:58:20.684Z,94136.25
2023-01-31T21:00:47.271Z,94146.31
2023-01-31T21:03:13.886Z,94145.03
2023-01-31T21:05:41.526Z,94145.81
2023-01-31T21:08:08.229Z,94151.38
2023-01-31T21:10:34.818Z,94147.34
2023-01-31T21:13:02.513Z,94156.28
2023-01-31T21:15:29.186Z,94151.22
2023-01-31T21:17:56.441Z,94155.41
2023-01-31T21:20:23.627Z,94164.00
2023-01-31T21:22:50.422Z,94158.81
2023-01-31T21:25:17.445Z,94158.84
2023-01-31T21:27:44.141Z,94159.38
2023-01-31T21:30:11.328Z,94160.91
2023-01-31T21:32:37.964Z,94170.25
2023-01-31T21:35:04.780Z,94159.38
2023-01-31T21:37:31.517Z,94158.81
2023-01-31T21:39:58.136Z,94156.47
2023-01-31T21:42:25.252Z,94154.16
2023-01-31T21:44:51.807Z,94154.91
2023-01-31T21:47:18.531Z,94153.97
2023-01-31T21:49:45.242Z,94151.28
2023-01-31T21:52:11.983Z,94152.47
2023-01-31T21:54:38.619Z,94163.84
2023-01-31T21:57:05.297Z,94154.66
2023-01-31T21:59:32.781Z,94159.84
2023-01-31T22:01:59.993Z,94161.28
2023-01-31T22:04:26.641Z,94158.91
2023-01-31T22:06:53.630Z,94160.91
2023-01-31T22:09:20.299Z,94160.19
2023-01-31T22:11:48.016Z,94159.31
2023-01-31T22:14:16.800Z,94168.69
2023-01-31T22:16:43.982Z,94163.28
2023-01-31T22:19:12.764Z,94165.63
2023-01-31T22:21:41.136Z,94163.31
2023-01-31T22:24:09.850Z,94168.78
2023-01-31T22:26:42.604Z,94165.94
2023-01-31T22:29:12.805Z,94165.19
2023-01-31T22:31:40.224Z,94170.66
2023-01-31T22:34:08.808Z,94174.22
2023-01-31T22:36:36.170Z,94174.63
2023-01-31T22:39:03.119Z,94168.69
2023-01-31T22:41:30.301Z,94165.63
2023-01-31T22:43:56.935Z,94169.47
2023-01-31T22:46:28.688Z,94153.44
2023-01-31T22:48:55.926Z,94150.63
2023-01-31T22:51:25.748Z,94155.00
2023-01-31T22:53:53.893Z,94163.88
2023-01-31T22:56:23.420Z,94165.06
2023-01-31T22:58:58.977Z,94161.53
2023-01-31T23:01:28.086Z,94164.19
2023-01-31T23:03:59.928Z,94160.97
2023-01-31T23:06:27.854Z,94153.91
2023-01-31T23:08:55.152Z,94157.13
2023-01-31T23:11:21.953Z,94153.53
2023-01-31T23:13:48.664Z,94158.66
2023-01-31T23:16:21.640Z,94156.19
2023-01-31T23:18:48.368Z,94157.13
2023-01-31T23:21:18.100Z,94160.38
2023-01-31T23:23:45.504Z,94154.59
2023-01-31T23:26:12.811Z,94159.72
2023-01-31T23:28:39.633Z,94159.19
2023-01-31T23:31:06.758Z,94164.81
2023-01-31T23:33:33.611Z,94156.63
2023-01-31T23:36:00.230Z,94165.63
2023-01-31T23:38:26.952Z,94171.94
2023-01-31T23:40:54.635Z,94163.75
2023-01-31T23:43:22.719Z,94167.38
2023-01-31T23:45:49.509Z,94171.91
2023-01-31T23:48:16.377Z,94170.66
2023-01-31T23:50:43.390Z,94167.16
2023-01-31T23:53:09.995Z,94176.22
2023-01-31T23:55:37.140Z,94184.47
2023-01-31T23:58:04.060Z,94185.41
